createdAt,value
2019-03-24T00:00:22.163Z,42.13
2019-03-24T00:02:53.250Z,41.37
2019-03-24T00:05:24.418Z,42.13
2019-03-24T00:07:56.918Z,42.17
2019-03-24T00:10:28.107Z,41.17
2019-03-24T00:12:59.072Z,41.63
2019-03-24T00:15:30.230Z,42.50
2019-03-24T00:18:01.223Z,41.53
2019-03-24T00:20:32.198Z,42.73
2019-03-24T00:23:03.247Z,44.73
2019-03-24T00:25:34.164Z,43.27
2019-03-24T00:28:05.166Z,41.60
2019-03-24T00:30:36.435Z,43.60
2019-03-24T00:33:07.569Z,42.13
2019-03-24T00:35:38.621Z,42.87
2019-03-24T00:38:09.596Z,42.33
2019-03-24T00:40:40.643Z,44.30
2019-03-24T00:43:11.753Z,43.53
2019-03-24T00:45:43.395Z,44.27
2019-03-24T00:48:14.521Z,42.93
2019-03-24T00:50:45.533Z,44.73
2019-03-24T00:53:16.447Z,42.57
2019-03-24T00:55:47.431Z,43.20
2019-03-24T00:58:18.594Z,43.93
2019-03-24T01:00:51.663Z,43.73
2019-03-24T01:03:22.788Z,45.77
2019-03-24T01:05:53.746Z,44.53
2019-03-24T01:08:25.069Z,46.10
2019-03-24T01:10:55.907Z,45.23
2019-03-24T01:13:27.220Z,43.20
2019-03-24T01:15:58.269Z,43.33
2019-03-24T01:18:29.281Z,45.00
2019-03-24T01:21:00.326Z,44.63
2019-03-24T01:23:31.354Z,43.27
2019-03-24T01:26:02.424Z,44.57
2019-03-24T01:28:33.451Z,44.90
2019-03-24T01:31:04.681Z,43.80
2019-03-24T01:33:37.034Z,44.83
2019-03-24T01:36:08.031Z,47.13
2019-03-24T01:38:39.002Z,44.40
2019-03-24T01:41:09.948Z,42.73
2019-03-24T01:43:41.176Z,45.07
2019-03-24T01:46:12.100Z,45.93
2019-03-24T01:48:43.108Z,45.50
2019-03-24T01:51:14.353Z,45.33
2019-03-24T01:53:45.322Z,44.90
2019-03-24T01:56:16.376Z,45.47
2019-03-24T01:58:47.445Z,48.17
2019-03-24T02:01:18.429Z,44.63
2019-03-24T02:03:49.445Z,47.40
2019-03-24T02:06:20.533Z,47.03
2019-03-24T02:08:51.502Z,44.63
2019-03-24T02:11:22.603Z,45.80
2019-03-24T02:13:53.582Z,45.23
2019-03-24T02:16:24.613Z,48.60
2019-03-24T02:18:55.632Z,47.07
2019-03-24T02:21:26.680Z,47.83
2019-03-24T02:23:57.779Z,47.67
2019-03-24T02:26:28.861Z,46.67
2019-03-24T02:29:00.026Z,45.73
2019-03-24T02:31:30.996Z,47.83
2019-03-24T02:34:01.999Z,47.10
2019-03-24T02:36:34.642Z,48.07
2019-03-24T02:39:07.628Z,47.97
2019-03-24T02:41:38.620Z,48.33
2019-03-24T02:44:09.545Z,47.60
2019-03-24T02:46:40.521Z,48.23
2019-03-24T02:49:11.462Z,47.73
2019-03-24T02:51:42.446Z,48.97
2019-03-24T02:54:13.855Z,49.60
2019-03-24T02:56:45.004Z,46.97
2019-03-24T02:59:16.030Z,48.43
2019-03-24T03:01:47.115Z,49.53
2019-03-24T03:04:18.088Z,48.20
2019-03-24T03:06:49.117Z,47.17
2019-03-24T03:09:20.078Z,48.63
2019-03-24T03:11:51.093Z,48.37
2019-03-24T03:14:22.225Z,48.07
2019-03-24T03:16:53.288Z,49.27
2019-03-24T03:19:24.364Z,47.20
2019-03-24T03:21:55.255Z,47.97
2019-03-24T03:24:26.245Z,48.43
2019-03-24T03:26:57.242Z,46.13
2019-03-24T03:29:28.293Z,48.03
2019-03-24T03:31:59.421Z,46.17
2019-03-24T03:34:30.472Z,47.97
2019-03-24T03:37:01.540Z,49.97
2019-03-24T03:39:32.678Z,47.80
2019-03-24T03:42:03.727Z,48.33
2019-03-24T03:44:34.817Z,47.67
2019-03-24T03:47:05.921Z,50.33
2019-03-24T03:49:36.849Z,48.77
2019-03-24T03:52:07.933Z,47.60
2019-03-24T03:54:38.894Z,48.87
2019-03-24T03:57:10.035Z,48.57
2019-03-24T03:59:41.181Z,50.30
2019-03-24T04:02:12.122Z,49.27
2019-03-24T04:04:43.162Z,47.97
2019-03-24T04:07:14.127Z,50.47
2019-03-24T04:09:45.116Z,49.20
2019-03-24T04:12:16.080Z,49.93
2019-03-24T04:14:47.160Z,50.90
2019-03-24T04:17:18.179Z,45.80
2019-03-24T04:19:49.086Z,50.80
2019-03-24T04:22:20.042Z,49.33
2019-03-24T04:24:51.074Z,50.70
2019-03-24T04:27:22.036Z,50.10
2019-03-24T04:29:52.988Z,47.17
2019-03-24T04:32:23.871Z,49.90
2019-03-24T04:34:54.923Z,50.23
2019-03-24T04:37:25.884Z,49.80
2019-03-24T04:39:57.229Z,50.97
2019-03-24T04:42:28.180Z,50.17
2019-03-24T04:44:59.122Z,52.60
2019-03-24T04:47:30.189Z,53.00
2019-03-24T04:50:01.189Z,52.27
2019-03-24T04:52:32.127Z,51.60
2019-03-24T04:55:03.176Z,54.37
2019-03-24T04:57:34.217Z,52.83
2019-03-24T05:00:07.934Z,52.60
2019-03-24T05:02:39.019Z,52.60
2019-03-24T05:05:10.430Z,52.23
2019-03-24T05:07:41.897Z,52.93
2019-03-24T05:10:27.054Z,54.17
2019-03-24T05:12:58.291Z,54.17
2019-03-24T05:15:29.323Z,51.03
2019-03-24T05:18:00.381Z,51.13
2019-03-24T05:20:31.284Z,53.93
2019-03-24T05:23:02.271Z,53.47
2019-03-24T05:25:33.227Z,51.30
2019-03-24T05:28:04.224Z,55.53
2019-03-24T05:30:35.095Z,53.40
2019-03-24T05:33:06.335Z,50.67
2019-03-24T05:35:39.969Z,50.63
2019-03-24T05:38:11.459Z,52.47
2019-03-24T05:40:42.802Z,51.40
2019-03-24T05:43:13.824Z,49.37
2019-03-24T05:45:44.869Z,50.13
2019-03-24T05:48:16.000Z,52.33
2019-03-24T05:50:47.029Z,54.17
2019-03-24T05:53:18.007Z,51.77
2019-03-24T05:55:48.981Z,50.70
2019-03-24T05:58:20.128Z,49.60
2019-03-24T06:00:51.111Z,48.10
2019-03-24T06:03:22.583Z,44.93
2019-03-24T06:05:53.603Z,48.40
2019-03-24T06:08:24.757Z,46.30
2019-03-24T06:10:55.902Z,45.33
2019-03-24T06:13:27.039Z,46.57
2019-03-24T06:15:58.447Z,43.33
2019-03-24T06:18:31.734Z,45.63
2019-03-24T06:21:02.895Z,44.30
2019-03-24T06:23:34.267Z,45.07
2019-03-24T06:26:05.304Z,44.67
2019-03-24T06:28:36.378Z,45.90
2019-03-24T06:31:07.425Z,44.30
2019-03-24T06:33:38.786Z,44.57
2019-03-24T06:36:09.959Z,42.07
2019-03-24T06:38:41.213Z,43.20
2019-03-24T06:41:12.157Z,42.87
2019-03-24T06:43:43.093Z,44.07
2019-03-24T06:46:18.217Z,45.07
2019-03-24T06:48:49.216Z,41.97
2019-03-24T06:51:20.419Z,40.80
2019-03-24T06:53:51.409Z,41.13
2019-03-24T06:56:22.382Z,41.93
2019-03-24T06:58:53.531Z,41.17
2019-03-24T07:01:24.529Z,41.60
2019-03-24T07:03:56.351Z,42.63
2019-03-24T07:06:27.385Z,41.70
2019-03-24T07:08:58.468Z,41.13
2019-03-24T07:11:29.570Z,41.63
2019-03-24T07:14:00.486Z,40.67
2019-03-24T07:16:31.532Z,40.37
2019-03-24T07:19:02.627Z,41.83
2019-03-24T07:21:33.532Z,40.00
2019-03-24T07:24:04.749Z,40.90
2019-03-24T07:26:35.706Z,40.30
2019-03-24T07:29:06.795Z,41.27
2019-03-24T07:31:37.974Z,40.80
2019-03-24T07:34:09.198Z,39.83
2019-03-24T07:36:40.360Z,41.93
2019-03-24T07:39:11.352Z,40.27
2019-03-24T07:41:42.385Z,40.97
2019-03-24T07:44:13.675Z,39.77
2019-03-24T07:46:44.784Z,41.07
2019-03-24T07:49:17.378Z,38.83
2019-03-24T07:51:48.453Z,39.77
2019-03-24T07:54:19.673Z,40.17
2019-03-24T07:56:50.806Z,39.03
2019-03-24T07:59:21.790Z,39.03
2019-03-24T08:01:52.802Z,40.90
2019-03-24T08:04:23.714Z,39.20
2019-03-24T08:06:55.004Z,38.10
2019-03-24T08:09:26.017Z,38.33
2019-03-24T08:11:57.061Z,37.87
2019-03-24T08:14:28.570Z,37.60
2019-03-24T08:17:06.986Z,38.70
2019-03-24T08:19:38.074Z,39.03
2019-03-24T08:22:09.177Z,40.20
2019-03-24T08:24:40.206Z,38.33
2019-03-24T08:27:11.227Z,37.70
2019-03-24T08:29:42.390Z,37.47
2019-03-24T08:32:13.491Z,38.23
2019-03-24T08:34:44.941Z,37.67
2019-03-24T08:37:16.215Z,38.47
2019-03-24T08:39:47.172Z,37.80
2019-03-24T08:42:18.213Z,36.30
2019-03-24T08:44:49.618Z,37.63
2019-03-24T08:47:24.352Z,38.57
2019-03-24T08:49:55.373Z,37.57
2019-03-24T08:52:26.806Z,38.83
2019-03-24T08:54:59.864Z,41.50
2019-03-24T08:57:32.427Z,37.93
2019-03-24T09:00:04.169Z,38.77
2019-03-24T09:02:35.281Z,39.00
2019-03-24T09:05:07.516Z,37.73
2019-03-24T09:07:38.581Z,38.70
2019-03-24T09:10:10.047Z,38.83
2019-03-24T09:12:41.276Z,37.47
2019-03-24T09:15:13.554Z,36.77
2019-03-24T09:17:45.076Z,37.67
2019-03-24T09:20:16.564Z,38.47
2019-03-24T09:22:47.649Z,37.47
2019-03-24T09:25:18.787Z,38.47
2019-03-24T09:27:50.074Z,36.87
2019-03-24T09:30:34.448Z,35.17
2019-03-24T09:33:06.304Z,36.60
2019-03-24T09:35:37.454Z,37.00
2019-03-24T09:38:08.730Z,37.27
2019-03-24T09:40:41.641Z,34.23
2019-03-24T09:43:14.014Z,35.43
2019-03-24T09:45:45.634Z,35.83
2019-03-24T09:48:16.803Z,36.07
2019-03-24T09:50:47.912Z,36.77
2019-03-24T09:53:18.952Z,37.53
2019-03-24T09:55:50.097Z,36.03
2019-03-24T09:58:21.022Z,35.83
2019-03-24T10:00:53.809Z,35.77
2019-03-24T10:03:24.955Z,37.97
2019-03-24T10:05:56.463Z,36.60
2019-03-24T10:08:27.401Z,35.73
2019-03-24T10:11:00.100Z,36.07
2019-03-24T10:13:32.675Z,35.23
2019-03-24T10:16:22.458Z,36.63
2019-03-24T10:18:53.228Z,37.10
2019-03-24T10:21:24.254Z,35.93
2019-03-24T10:23:55.455Z,37.47
2019-03-24T10:26:26.663Z,36.03
2019-03-24T10:28:57.661Z,38.53
2019-03-24T10:31:28.629Z,37.23
2019-03-24T10:33:59.826Z,39.93
2019-03-24T10:36:30.994Z,36.93
2019-03-24T10:39:02.238Z,40.37
2019-03-24T10:41:33.398Z,37.57
2019-03-24T10:44:04.443Z,34.07
2019-03-24T10:46:35.613Z,35.23
2019-03-24T10:49:06.955Z,35.73
2019-03-24T10:51:38.255Z,36.93
2019-03-24T10:54:09.937Z,36.47
2019-03-24T10:56:41.091Z,35.63
2019-03-24T10:59:12.371Z,36.10
2019-03-24T11:01:44.152Z,36.20
2019-03-24T11:04:16.011Z,39.33
2019-03-24T11:06:47.177Z,38.43
2019-03-24T11:09:18.255Z,35.80
2019-03-24T11:11:49.597Z,39.20
2019-03-24T11:14:21.680Z,35.87
2019-03-24T11:16:52.677Z,36.27
2019-03-24T11:19:23.747Z,35.93
2019-03-24T11:22:00.484Z,36.00
2019-03-24T11:24:31.696Z,36.50
2019-03-24T11:27:02.621Z,35.87
2019-03-24T11:29:33.642Z,35.20
2019-03-24T11:32:04.750Z,37.57
2019-03-24T11:34:35.873Z,36.50
2019-03-24T11:37:07.701Z,38.03
2019-03-24T11:39:38.662Z,37.90
2019-03-24T11:42:10.086Z,36.67
2019-03-24T11:44:41.059Z,37.53
2019-03-24T11:47:12.318Z,37.03
2019-03-24T11:49:46.279Z,35.83
2019-03-24T11:52:16.258Z,34.63
2019-03-24T11:54:47.274Z,34.97
2019-03-24T11:57:18.428Z,36.07
2019-03-24T11:59:50.633Z,36.00
2019-03-24T12:02:22.032Z,35.87
2019-03-24T12:04:53.100Z,34.97
2019-03-24T12:07:25.741Z,35.07
2019-03-24T12:09:57.048Z,35.37
2019-03-24T12:12:28.054Z,37.60
2019-03-24T12:14:59.140Z,38.37
2019-03-24T12:17:30.260Z,36.87
2019-03-24T12:20:01.416Z,36.20
2019-03-24T12:22:32.440Z,36.40
2019-03-24T12:25:06.662Z,35.25
2019-03-24T12:27:37.961Z,35.28
2019-03-24T12:30:10.279Z,36.20
2019-03-24T12:32:41.718Z,35.95
2019-03-24T12:35:12.927Z,38.15
2019-03-24T12:37:44.183Z,34.48
2019-03-24T12:40:15.651Z,35.83
2019-03-24T12:42:46.982Z,36.20
2019-03-24T12:45:18.061Z,36.83
2019-03-24T12:47:49.208Z,36.73
2019-03-24T12:50:31.052Z,37.53
2019-03-24T12:52:52.939Z,36.40
2019-03-24T12:55:23.975Z,35.50
2019-03-24T12:57:54.952Z,34.30
2019-03-24T13:00:34.144Z,35.13
2019-03-24T13:03:05.678Z,33.97
2019-03-24T13:05:36.852Z,33.90
2019-03-24T13:08:15.409Z,36.47
2019-03-24T13:10:47.461Z,35.00
2019-03-24T13:13:18.764Z,35.75
2019-03-24T13:15:50.191Z,34.87
2019-03-24T13:18:21.399Z,35.03
2019-03-24T13:20:52.528Z,36.00
2019-03-24T13:23:23.560Z,36.63
2019-03-24T13:25:55.261Z,34.87
2019-03-24T13:28:27.755Z,34.07
2019-03-24T13:30:58.826Z,37.43
2019-03-24T13:33:30.217Z,35.30
2019-03-24T13:36:08.747Z,33.93
2019-03-24T13:38:39.642Z,35.27
2019-03-24T13:41:10.771Z,34.83
2019-03-24T13:43:41.955Z,34.00
2019-03-24T13:46:13.122Z,35.00
2019-03-24T13:48:44.257Z,36.33
2019-03-24T13:51:15.935Z,36.37
2019-03-24T13:53:46.952Z,35.23
2019-03-24T13:56:17.995Z,35.00
2019-03-24T13:58:50.938Z,34.13
2019-03-24T14:01:22.040Z,33.73
2019-03-24T14:03:52.966Z,33.67
2019-03-24T14:06:30.126Z,32.20
2019-03-24T14:09:01.826Z,34.17
2019-03-24T14:11:32.949Z,34.33
2019-03-24T14:14:04.021Z,35.40
2019-03-24T14:16:35.034Z,35.43
2019-03-24T14:19:06.056Z,35.30
2019-03-24T14:21:39.914Z,35.67
2019-03-24T14:24:11.029Z,34.90
2019-03-24T14:26:52.682Z,36.57
2019-03-24T14:29:23.979Z,35.73
2019-03-24T14:31:55.385Z,36.27
2019-03-24T14:34:26.605Z,34.80
2019-03-24T14:36:57.683Z,35.07
2019-03-24T14:39:30.294Z,36.67
2019-03-24T14:42:01.484Z,37.33
2019-03-24T14:44:32.469Z,35.20
2019-03-24T14:47:05.043Z,35.20
2019-03-24T14:49:36.091Z,35.07
2019-03-24T14:52:07.336Z,34.90
2019-03-24T14:54:38.379Z,34.13
2019-03-24T14:57:09.528Z,36.33
2019-03-24T14:59:40.675Z,36.03
2019-03-24T15:02:11.961Z,37.30
2019-03-24T15:04:46.096Z,36.67
2019-03-24T15:07:17.037Z,35.50
2019-03-24T15:09:48.196Z,37.53
2019-03-24T15:12:22.265Z,36.27
2019-03-24T15:14:53.493Z,38.10
2019-03-24T15:17:24.601Z,36.63
2019-03-24T15:19:55.938Z,39.00
2019-03-24T15:22:26.945Z,37.07
2019-03-24T15:24:58.492Z,37.83
2019-03-24T15:27:32.935Z,36.37
2019-03-24T15:30:11.438Z,36.47
2019-03-24T15:32:41.534Z,34.70
2019-03-24T15:35:12.698Z,36.97
2019-03-24T15:37:45.684Z,37.10
2019-03-24T15:40:16.944Z,37.37
2019-03-24T15:42:49.502Z,36.40
2019-03-24T15:45:20.494Z,35.77
2019-03-24T15:47:53.231Z,36.17
2019-03-24T15:53:24.926Z,35.10
2019-03-24T15:55:55.887Z,33.97
2019-03-24T15:58:26.830Z,33.17
2019-03-24T16:00:57.869Z,35.50
2019-03-24T16:03:29.097Z,34.43
2019-03-24T16:06:00.198Z,34.57
2019-03-24T16:08:31.088Z,33.97
2019-03-24T16:11:02.137Z,35.00
2019-03-24T16:13:34.982Z,34.43
2019-03-24T16:16:06.216Z,35.93
2019-03-24T16:18:37.311Z,33.70
2019-03-24T16:21:08.435Z,33.07
2019-03-24T16:23:39.833Z,35.10
2019-03-24T16:26:11.077Z,34.17
2019-03-24T16:28:42.314Z,34.50
2019-03-24T16:31:13.367Z,32.67
2019-03-24T16:33:44.393Z,33.47
2019-03-24T16:36:15.614Z,34.93
2019-03-24T16:38:49.106Z,35.23
2019-03-24T16:41:20.310Z,34.60
2019-03-24T16:43:51.876Z,34.70
2019-03-24T16:46:42.380Z,35.50
2019-03-24T16:49:13.465Z,34.67
2019-03-24T16:51:44.394Z,34.63
2019-03-24T16:54:15.768Z,35.37
2019-03-24T16:56:46.767Z,33.90
2019-03-24T16:59:18.355Z,33.67
2019-03-24T17:02:02.962Z,36.60
2019-03-24T17:04:45.833Z,36.43
2019-03-24T17:07:41.200Z,35.63
2019-03-24T17:10:39.527Z,34.30
2019-03-24T17:13:08.054Z,33.73
2019-03-24T17:15:39.150Z,32.97
2019-03-24T17:18:10.659Z,33.33
2019-03-24T17:20:48.056Z,33.03
2019-03-24T17:23:24.350Z,33.70
2019-03-24T17:25:55.630Z,33.53
2019-03-24T17:28:28.381Z,32.70
2019-03-24T17:30:59.620Z,33.63
2019-03-24T17:33:31.859Z,31.27
2019-03-24T17:36:03.327Z,33.10
2019-03-24T17:38:34.319Z,34.03
2019-03-24T17:41:05.576Z,35.17
2019-03-24T17:43:36.719Z,33.03
2019-03-24T17:46:08.021Z,33.27
2019-03-24T17:48:39.053Z,31.83
2019-03-24T17:51:10.280Z,33.13
2019-03-24T17:53:41.412Z,33.10
2019-03-24T17:56:12.356Z,33.70
2019-03-24T17:58:45.486Z,31.43
2019-03-24T18:01:16.373Z,33.47
2019-03-24T18:03:49.088Z,32.90
2019-03-24T18:06:20.197Z,34.97
2019-03-24T18:08:51.196Z,32.10
2019-03-24T18:11:22.279Z,32.53
2019-03-24T18:13:53.342Z,33.50
2019-03-24T18:16:24.463Z,34.20
2019-03-24T18:19:05.075Z,33.70
2019-03-24T18:21:36.128Z,36.80
2019-03-24T18:24:07.374Z,35.67
2019-03-24T18:26:40.960Z,35.93
2019-03-24T18:29:12.311Z,33.63
2019-03-24T18:31:43.566Z,34.37
2019-03-24T18:34:15.255Z,47.73
2019-03-24T18:36:46.201Z,35.97
2019-03-24T18:39:17.955Z,35.97
2019-03-24T18:41:49.012Z,36.00
2019-03-24T18:44:20.444Z,68.33
2019-03-24T18:46:53.318Z,37.53
2019-03-24T18:49:39.732Z,36.00
2019-03-24T18:52:22.367Z,34.83
2019-03-24T18:54:45.595Z,33.03
2019-03-24T18:57:17.244Z,33.63
2019-03-24T18:59:48.495Z,33.20
2019-03-24T19:02:19.499Z,31.67
2019-03-24T19:04:50.505Z,29.73
2019-03-24T19:07:21.492Z,28.70
2019-03-24T19:09:52.649Z,29.13
2019-03-24T19:12:26.425Z,29.10
2019-03-24T19:14:57.815Z,27.10
2019-03-24T19:17:28.836Z,28.80
2019-03-24T19:19:59.876Z,27.07
2019-03-24T19:22:33.772Z,30.20
2019-03-24T19:25:05.642Z,28.03
2019-03-24T19:27:37.951Z,26.77
2019-03-24T19:30:14.925Z,27.03
2019-03-24T19:32:46.944Z,28.27
2019-03-24T19:35:18.166Z,28.13
2019-03-24T19:37:49.925Z,26.27
2019-03-24T19:40:29.757Z,24.03
2019-03-24T19:43:01.606Z,26.70
2019-03-24T19:45:32.743Z,27.40
2019-03-24T19:48:03.974Z,25.40
2019-03-24T19:50:34.945Z,27.00
2019-03-24T19:53:06.139Z,25.30
2019-03-24T19:55:37.475Z,26.67
2019-03-24T19:58:10.905Z,26.27
2019-03-24T20:00:41.960Z,24.57
2019-03-24T20:03:14.358Z,27.50
2019-03-24T20:05:45.333Z,27.87
2019-03-24T20:08:16.710Z,25.70
2019-03-24T20:10:48.478Z,24.77
2019-03-24T20:13:19.628Z,25.53
2019-03-24T20:15:50.653Z,26.03
2019-03-24T20:18:23.240Z,25.47
2019-03-24T20:20:55.806Z,25.67
2019-03-24T20:23:26.895Z,25.57
2019-03-24T20:25:58.230Z,23.60
2019-03-24T20:28:29.257Z,24.07
2019-03-24T20:31:02.059Z,25.00
2019-03-24T20:33:33.076Z,23.23
2019-03-24T20:36:04.063Z,25.03
2019-03-24T20:38:35.459Z,24.10
2019-03-24T20:41:06.660Z,23.43
2019-03-24T20:43:37.729Z,23.80
2019-03-24T20:46:08.696Z,23.67
2019-03-24T20:48:39.729Z,24.27
2019-03-24T20:51:10.686Z,24.13
2019-03-24T20:53:41.660Z,25.00
2019-03-24T20:56:12.857Z,24.53
2019-03-24T20:58:44.147Z,25.50
2019-03-24T21:01:18.743Z,25.27
2019-03-24T21:03:49.443Z,23.80
2019-03-24T21:06:21.654Z,24.87
2019-03-24T21:08:52.689Z,23.70
2019-03-24T21:11:23.749Z,25.07
2019-03-24T21:13:56.391Z,23.90
2019-03-24T21:16:27.716Z,23.80
2019-03-24T21:18:58.682Z,24.27
2019-03-24T21:21:30.101Z,24.50
2019-03-24T21:24:00.996Z,23.83
2019-03-24T21:26:32.047Z,24.63
2019-03-24T21:29:02.925Z,24.23
2019-03-24T21:31:33.940Z,24.03
2019-03-24T21:34:04.988Z,24.50
2019-03-24T21:36:36.946Z,24.03
2019-03-24T21:39:09.038Z,23.97
2019-03-24T21:41:40.006Z,25.73
2019-03-24T21:44:11.651Z,23.30
2019-03-24T21:46:44.380Z,23.40
2019-03-24T21:49:15.447Z,23.67
2019-03-24T21:51:46.454Z,24.83
2019-03-24T21:54:18.972Z,23.50
2019-03-24T21:56:49.964Z,25.43
2019-03-24T21:59:20.912Z,25.47
2019-03-24T22:01:51.984Z,24.47
2019-03-24T22:04:58.744Z,24.17
2019-03-24T22:07:34.390Z,24.97
2019-03-24T22:13:40.734Z,22.97
2019-03-24T22:19:52.780Z,23.03
2019-03-24T22:22:11.815Z,23.30
2019-03-24T22:25:00.985Z,23.70
2019-03-24T22:34:04.362Z,23.03
2019-03-24T22:39:29.026Z,22.17
2019-03-24T22:41:59.973Z,22.90
2019-03-24T22:44:31.027Z,23.20
2019-03-24T22:47:01.977Z,22.07
2019-03-24T22:49:32.957Z,23.03
2019-03-24T22:52:07.458Z,23.87
2019-03-24T22:54:37.230Z,23.13
2019-03-24T22:57:08.440Z,22.07
2019-03-24T22:59:39.433Z,24.00
2019-03-24T23:02:12.116Z,21.87
2019-03-24T23:04:43.161Z,22.70
2019-03-24T23:07:14.281Z,22.83
2019-03-24T23:09:45.595Z,24.33
2019-03-24T23:12:16.637Z,25.23
2019-03-24T23:14:47.781Z,24.37
2019-03-24T23:17:18.687Z,23.10
2019-03-24T23:19:49.785Z,24.63
2019-03-24T23:22:20.820Z,22.20
2019-03-24T23:24:52.024Z,23.33
2019-03-24T23:27:23.215Z,23.73
2019-03-24T23:29:54.256Z,24.03
2019-03-24T23:32:25.221Z,23.13
2019-03-24T23:34:56.159Z,23.60
2019-03-24T23:37:27.191Z,22.57
2019-03-24T23:39:58.325Z,22.37
2019-03-24T23:42:29.349Z,21.53
2019-03-24T23:45:00.374Z,22.80
2019-03-24T23:47:31.307Z,21.67
2019-03-24T23:50:02.281Z,22.27
2019-03-24T23:52:33.335Z,20.50
2019-03-24T23:55:05.217Z,20.47
2019-03-24T23:57:36.271Z,19.17
